createdAt,value
2016-09-20T00:00:20.387Z,81.49
2016-09-20T00:01:21.060Z,81.78
2016-09-20T00:02:21.733Z,81.88
2016-09-20T00:03:22.392Z,81.68
2016-09-20T00:04:23.083Z,81.59
2016-09-20T00:05:23.784Z,82.35
2016-09-20T00:06:24.449Z,82.17
2016-09-20T00:07:25.138Z,82.07
2016-09-20T00:08:25.817Z,82.35
2016-09-20T00:09:27.213Z,82.54
2016-09-20T00:10:27.867Z,82.35
2016-09-20T00:11:28.521Z,82.54
2016-09-20T00:12:29.210Z,82.64
2016-09-20T00:13:29.853Z,82.26
2016-09-20T00:14:30.504Z,82.54
2016-09-20T00:15:31.159Z,82.54
2016-09-20T00:16:31.849Z,82.54
2016-09-20T00:17:32.483Z,82.64
2016-09-20T00:18:33.143Z,82.64
2016-09-20T00:19:33.809Z,82.54
2016-09-20T00:20:34.602Z,83.12
2016-09-20T00:21:35.296Z,83.03
2016-09-20T00:22:35.943Z,82.93
2016-09-20T00:23:36.594Z,83.22
2016-09-20T00:24:37.429Z,83.31
2016-09-20T00:25:37.954Z,83.12
2016-09-20T00:26:38.610Z,82.93
2016-09-20T00:27:39.284Z,83.6
2016-09-20T00:28:39.956Z,83.5
2016-09-20T00:29:40.652Z,83.22
2016-09-20T00:30:41.310Z,83.12
2016-09-20T00:31:41.976Z,83.22
2016-09-20T00:32:42.634Z,83.4
2016-09-20T00:33:43.278Z,83.12
2016-09-20T00:34:43.934Z,83.31
2016-09-20T00:35:44.828Z,83.31
2016-09-20T00:36:45.530Z,83.89
2016-09-20T00:37:46.177Z,83.79
2016-09-20T00:38:46.829Z,83.69
2016-09-20T00:39:47.448Z,83.69
2016-09-20T00:40:48.144Z,83.79
2016-09-20T00:41:48.786Z,83.89
2016-09-20T00:42:49.466Z,83.79
2016-09-20T00:43:50.144Z,83.69
2016-09-20T00:44:50.799Z,83.89
2016-09-20T00:45:51.427Z,83.6
2016-09-20T00:46:52.107Z,83.69
2016-09-20T00:47:52.770Z,83.4
2016-09-20T00:48:53.403Z,83.5
2016-09-20T00:49:54.068Z,83.98
2016-09-20T00:50:54.729Z,83.98
2016-09-20T00:51:55.364Z,83.98
2016-09-20T00:52:56.034Z,83.98
2016-09-20T00:53:56.705Z,83.79
2016-09-20T00:54:57.340Z,83.98
2016-09-20T00:55:58.012Z,83.89
2016-09-20T00:56:58.679Z,83.89
2016-09-20T00:57:59.353Z,84.75
2016-09-20T00:59:00.020Z,84.36
2016-09-20T01:00:00.644Z,84.27
2016-09-20T01:01:01.293Z,84.46
2016-09-20T01:02:01.928Z,84.65
2016-09-20T01:03:02.562Z,84.55
2016-09-20T01:04:03.217Z,84.27
2016-09-20T01:05:03.854Z,84.75
2016-09-20T01:06:04.514Z,83.98
2016-09-20T01:07:05.192Z,83.98
2016-09-20T01:08:05.864Z,84.46
2016-09-20T01:09:06.534Z,84.27
2016-09-20T01:10:07.199Z,84.46
2016-09-20T01:11:07.833Z,84.46
2016-09-20T01:12:08.479Z,84.27
2016-09-20T01:13:09.131Z,84.27
2016-09-20T01:14:09.791Z,84.65
2016-09-20T01:15:10.446Z,84.08
2016-09-20T01:16:11.085Z,83.79
2016-09-20T01:17:11.740Z,83.31
2016-09-20T01:18:12.383Z,83.79
2016-09-20T01:19:13.028Z,83.79
2016-09-20T01:20:13.687Z,84.08
2016-09-20T01:21:14.334Z,84.17
2016-09-20T01:22:14.985Z,83.79
2016-09-20T01:23:15.634Z,83.4
2016-09-20T01:24:16.272Z,83.31
2016-09-20T01:25:16.912Z,83.31
2016-09-20T01:26:17.571Z,83.31
2016-09-20T01:27:18.213Z,83.12
2016-09-20T01:28:18.858Z,83.65
2016-09-20T01:29:19.498Z,83.89
2016-09-20T01:30:20.179Z,83.65
2016-09-20T01:31:20.823Z,83.75
2016-09-20T01:32:21.480Z,84.13
2016-09-20T01:33:22.148Z,84.03
2016-09-20T01:34:22.809Z,83.84
2016-09-20T01:35:23.475Z,83.89
2016-09-20T01:36:24.106Z,83.98
2016-09-20T01:37:24.791Z,83.79
2016-09-20T01:38:25.435Z,83.79
2016-09-20T01:39:26.076Z,83.5
2016-09-20T01:40:26.747Z,83.69
2016-09-20T01:41:27.409Z,83.79
2016-09-20T01:42:28.072Z,83.31
2016-09-20T01:43:28.706Z,83.22
2016-09-20T01:44:29.381Z,83.31
2016-09-20T01:45:30.123Z,83.22
2016-09-20T01:46:30.765Z,83.69
2016-09-20T01:47:31.401Z,83.79
2016-09-20T01:48:32.032Z,83.79
2016-09-20T01:49:32.675Z,84.08
2016-09-20T01:50:33.318Z,83.89
2016-09-20T01:51:33.974Z,83.89
2016-09-20T01:52:34.614Z,84.32
2016-09-20T01:53:35.271Z,84.32
2016-09-20T01:54:35.941Z,84.32
2016-09-20T01:55:36.590Z,84.27
2016-09-20T01:56:37.233Z,84.61
2016-09-20T01:57:37.873Z,84.08
2016-09-20T01:58:38.529Z,84.36
2016-09-20T01:59:39.176Z,84.46
2016-09-20T02:00:39.821Z,83.75
2016-09-20T02:01:40.450Z,84.08
2016-09-20T02:02:41.089Z,84.13
2016-09-20T02:03:41.739Z,83.79
2016-09-20T02:04:42.399Z,83.65
2016-09-20T02:05:43.047Z,83.56
2016-09-20T02:06:43.689Z,83.79
2016-09-20T02:07:44.329Z,83.98
2016-09-20T02:08:44.973Z,83.79
2016-09-20T02:09:45.654Z,83.69
2016-09-20T02:10:46.311Z,83.6
2016-09-20T02:11:46.980Z,83.31
2016-09-20T02:12:47.623Z,83.31
2016-09-20T02:13:48.356Z,83.6
2016-09-20T02:14:48.979Z,82.93
2016-09-20T02:15:49.638Z,83.03
2016-09-20T02:16:50.272Z,83.4
2016-09-20T02:17:50.925Z,83.31
2016-09-20T02:18:51.585Z,83.22
2016-09-20T02:19:52.220Z,83.22
2016-09-20T02:20:52.903Z,83.4
2016-09-20T02:21:53.567Z,83.4
2016-09-20T02:22:54.213Z,83.12
2016-09-20T02:23:54.850Z,83.22
2016-09-20T02:24:55.530Z,83.03
2016-09-20T02:25:56.160Z,83.5
2016-09-20T02:26:56.795Z,83.22
2016-09-20T02:27:57.441Z,83.31
2016-09-20T02:28:58.110Z,82.93
2016-09-20T02:29:58.748Z,82.98
2016-09-20T02:30:59.410Z,83.31
2016-09-20T02:32:00.152Z,82.98
2016-09-20T02:33:00.797Z,83.27
2016-09-20T02:34:01.445Z,83.08
2016-09-20T02:35:02.086Z,83.08
2016-09-20T02:36:02.923Z,83.65
2016-09-20T02:37:03.663Z,83.75
2016-09-20T02:38:04.522Z,83.75
2016-09-20T02:39:05.315Z,83.75
2016-09-20T02:40:06.033Z,83.94
2016-09-20T02:41:06.696Z,83.65
2016-09-20T02:42:07.369Z,83.65
2016-09-20T02:43:08.033Z,83.46
2016-09-20T02:44:08.666Z,83.84
2016-09-20T02:45:09.300Z,83.75
2016-09-20T02:46:09.948Z,83.56
2016-09-20T02:47:10.586Z,83.84
2016-09-20T02:48:11.247Z,83.84
2016-09-20T02:49:11.915Z,84.08
2016-09-20T02:50:12.545Z,83.79
2016-09-20T02:51:13.176Z,83.79
2016-09-20T02:52:13.850Z,83.65
2016-09-20T02:53:14.520Z,83.79
2016-09-20T02:54:15.179Z,83.89
2016-09-20T02:55:15.868Z,83.69
2016-09-20T02:56:16.519Z,83.89
2016-09-20T02:57:17.151Z,83.31
2016-09-20T02:58:17.807Z,83.6
2016-09-20T02:59:18.450Z,83.79
2016-09-20T03:00:19.117Z,83.79
2016-09-20T03:01:19.951Z,84.36
2016-09-20T03:02:20.604Z,84.42
2016-09-20T03:03:21.237Z,84.36
2016-09-20T03:04:21.912Z,84.36
2016-09-20T03:05:22.567Z,84.55
2016-09-20T03:06:23.200Z,84.46
2016-09-20T03:07:23.849Z,84.65
2016-09-20T03:08:24.484Z,84.55
2016-09-20T03:09:25.147Z,84.08
2016-09-20T03:10:25.810Z,84.08
2016-09-20T03:11:26.460Z,84.08
2016-09-20T03:12:27.231Z,83.69
2016-09-20T03:13:28.000Z,83.98
2016-09-20T03:14:28.720Z,84.13
2016-09-20T03:15:29.579Z,84.42
2016-09-20T03:16:30.515Z,83.84
2016-09-20T03:17:31.276Z,84.08
2016-09-20T03:18:32.015Z,84.36
2016-09-20T03:19:33.372Z,84.42
2016-09-20T03:20:34.291Z,84.46
2016-09-20T03:21:35.004Z,84.03
2016-09-20T03:22:35.644Z,84.52
2016-09-20T03:23:36.324Z,84.46
2016-09-20T03:24:36.972Z,84.46
2016-09-20T03:25:37.624Z,84.03
2016-09-20T03:26:38.275Z,84.55
2016-09-20T03:27:38.915Z,84.46
2016-09-20T03:28:39.565Z,84.46
2016-09-20T03:29:40.205Z,84.27
2016-09-20T03:30:40.848Z,84.27
2016-09-20T03:31:41.505Z,85.13
2016-09-20T03:32:42.164Z,84.8
2016-09-20T03:33:42.799Z,84.61
2016-09-20T03:34:43.434Z,85.51
2016-09-20T03:35:44.089Z,85.13
2016-09-20T03:36:44.730Z,85.38
2016-09-20T03:37:45.392Z,85.38
2016-09-20T03:38:46.053Z,85.38
2016-09-20T03:39:46.693Z,85.71
2016-09-20T03:40:47.353Z,85.71
2016-09-20T03:41:48.026Z,85.94
2016-09-20T03:42:48.667Z,85.75
2016-09-20T03:43:49.316Z,85.8
2016-09-20T03:44:49.947Z,85.71
2016-09-20T03:45:50.583Z,85.57
2016-09-20T03:46:51.236Z,86.08
2016-09-20T03:47:51.870Z,86.33
2016-09-20T03:48:52.503Z,85.99
2016-09-20T03:49:53.139Z,86.37
2016-09-20T03:50:53.792Z,85.89
2016-09-20T03:51:54.436Z,85.89
2016-09-20T03:52:55.086Z,85.75
2016-09-20T03:53:55.728Z,86.33
2016-09-20T03:54:56.370Z,85.94
2016-09-20T03:55:57.045Z,85.47
2016-09-20T03:56:57.732Z,86.28
2016-09-20T03:57:58.373Z,86.18
2016-09-20T03:58:59.005Z,86.52
2016-09-20T03:59:59.638Z,86.04
2016-09-20T04:01:00.287Z,86.23
2016-09-20T04:02:00.950Z,86.08
2016-09-20T04:03:01.597Z,86.08
2016-09-20T04:04:02.255Z,86.08
2016-09-20T04:05:02.921Z,85.89
2016-09-20T04:06:03.562Z,85.99
2016-09-20T04:07:04.212Z,86.08
2016-09-20T04:08:04.839Z,86.08
2016-09-20T04:09:05.473Z,86.08
2016-09-20T04:10:06.127Z,86.18
2016-09-20T04:11:06.767Z,85.71
2016-09-20T04:12:07.412Z,85.61
2016-09-20T04:13:08.047Z,85.51
2016-09-20T04:14:08.712Z,85.89
2016-09-20T04:15:09.380Z,85.99
2016-09-20T04:16:10.071Z,85.51
2016-09-20T04:17:10.726Z,85.32
2016-09-20T04:18:11.388Z,85.51
2016-09-20T04:19:12.024Z,85.32
2016-09-20T04:20:12.704Z,85.61
2016-09-20T04:21:13.338Z,85.61
2016-09-20T04:22:13.983Z,85.51
2016-09-20T04:23:14.610Z,85.89
2016-09-20T04:24:15.246Z,85.89
2016-09-20T04:25:15.912Z,85.51
2016-09-20T04:26:16.577Z,85.89
2016-09-20T04:27:17.214Z,85.99
2016-09-20T04:28:17.868Z,85.99
2016-09-20T04:29:18.498Z,85.89
2016-09-20T04:30:19.144Z,85.22
2016-09-20T04:31:19.825Z,85.32
2016-09-20T04:32:20.471Z,85.99
2016-09-20T04:33:21.115Z,85.51
2016-09-20T04:34:21.763Z,85.8
2016-09-20T04:35:22.437Z,85.8
2016-09-20T04:36:23.100Z,85.32
2016-09-20T04:37:23.733Z,85.41
2016-09-20T04:38:24.373Z,85.8
2016-09-20T04:39:25.019Z,85.51
2016-09-20T04:40:25.674Z,85.51
2016-09-20T04:41:26.318Z,85.41
2016-09-20T04:42:26.978Z,85.51
2016-09-20T04:43:27.641Z,85.71
2016-09-20T04:44:28.288Z,85.89
2016-09-20T04:45:28.943Z,85.8
2016-09-20T04:46:29.603Z,85.89
2016-09-20T04:47:30.247Z,85.71
2016-09-20T04:48:30.889Z,85.99
2016-09-20T04:49:31.548Z,86.08
2016-09-20T04:50:32.194Z,86.08
2016-09-20T04:51:32.845Z,85.99
2016-09-20T04:52:33.475Z,86.18
2016-09-20T04:53:34.122Z,86.37
2016-09-20T04:54:34.763Z,86.18
2016-09-20T04:55:35.398Z,85.8
2016-09-20T04:56:36.048Z,86.08
2016-09-20T04:57:36.698Z,86.28
2016-09-20T04:58:37.351Z,86.08
2016-09-20T04:59:37.995Z,86.08
2016-09-20T05:00:38.641Z,86.18
2016-09-20T05:01:39.280Z,85.8
2016-09-20T05:02:39.928Z,86.28
2016-09-20T05:03:40.651Z,86.47
2016-09-20T05:04:41.297Z,86.08
2016-09-20T05:05:41.976Z,86.08
2016-09-20T05:06:42.627Z,86.47
2016-09-20T05:07:43.257Z,86.66
2016-09-20T05:08:43.948Z,86.47
2016-09-20T05:09:44.595Z,85.8
2016-09-20T05:10:45.256Z,86.33
2016-09-20T05:11:45.888Z,86.61
2016-09-20T05:12:46.547Z,87.57
2016-09-20T05:13:47.185Z,87.29
2016-09-20T05:14:47.837Z,87
2016-09-20T05:15:48.493Z,86.9
2016-09-20T05:16:49.149Z,87.09
2016-09-20T05:17:49.801Z,87.09
2016-09-20T05:18:50.434Z,87.29
2016-09-20T05:19:51.070Z,87.33
2016-09-20T05:20:51.731Z,87.43
2016-09-20T05:21:52.399Z,86.9
2016-09-20T05:22:53.083Z,87.14
2016-09-20T05:23:53.699Z,86.94
2016-09-20T05:24:54.385Z,86.76
2016-09-20T05:25:55.034Z,87.14
2016-09-20T05:26:55.712Z,86.9
2016-09-20T05:27:56.381Z,87.38
2016-09-20T05:28:57.008Z,87.43
2016-09-20T05:29:57.701Z,87.52
2016-09-20T05:30:58.347Z,87.66
2016-09-20T05:31:58.994Z,87.86
2016-09-20T05:32:59.636Z,88.05
2016-09-20T05:34:00.283Z,88.15
2016-09-20T05:35:00.943Z,88.38
2016-09-20T05:36:01.604Z,87.95
2016-09-20T05:37:02.260Z,88.24
2016-09-20T05:38:02.917Z,88.24
2016-09-20T05:39:03.577Z,88.05
2016-09-20T05:40:04.216Z,88.15
2016-09-20T05:41:04.848Z,87.86
2016-09-20T05:42:05.509Z,88.15
2016-09-20T05:43:06.142Z,87.95
2016-09-20T05:44:06.806Z,88.05
2016-09-20T05:45:07.454Z,87.76
2016-09-20T05:46:08.105Z,88.24
2016-09-20T05:47:09.721Z,88.53
2016-09-20T05:48:10.776Z,88.53
2016-09-20T05:49:11.480Z,88.62
2016-09-20T05:50:12.143Z,88.81
2016-09-20T05:51:12.783Z,88.81
2016-09-20T05:52:13.424Z,89.2
2016-09-20T05:53:14.062Z,89.01
2016-09-20T05:54:14.728Z,89.39
2016-09-20T05:55:16.217Z,88.81
2016-09-20T05:56:16.863Z,89.01
2016-09-20T05:57:17.520Z,89.39
2016-09-20T05:58:18.177Z,89.1
2016-09-20T05:59:18.829Z,89.2
2016-09-20T06:00:19.478Z,88.72
2016-09-20T06:01:20.119Z,88.34
2016-09-20T06:02:20.760Z,88.43
2016-09-20T06:03:21.397Z,88.91
2016-09-20T06:04:22.104Z,89.01
2016-09-20T06:05:22.765Z,88.72
2016-09-20T06:06:23.410Z,89.29
2016-09-20T06:07:24.102Z,89.01
2016-09-20T06:08:24.757Z,89.29
2016-09-20T06:09:25.410Z,89.77
2016-09-20T06:10:26.048Z,89.29
2016-09-20T06:11:26.732Z,88.91
2016-09-20T06:12:27.414Z,89.2
2016-09-20T06:13:28.062Z,89.29
2016-09-20T06:14:28.723Z,89.58
2016-09-20T06:15:29.371Z,89.48
2016-09-20T06:16:30.020Z,89.2
2016-09-20T06:17:30.641Z,89.29
2016-09-20T06:18:31.358Z,89.29
2016-09-20T06:19:31.992Z,89.39
2016-09-20T06:20:32.657Z,89.48
2016-09-20T06:21:33.293Z,89.2
2016-09-20T06:22:33.950Z,89.1
2016-09-20T06:23:34.625Z,89.39
2016-09-20T06:24:35.238Z,89.2
2016-09-20T06:25:35.880Z,88.72
2016-09-20T06:26:36.725Z,89.29
2016-09-20T06:27:37.190Z,89.1
2016-09-20T06:28:37.831Z,88.81
2016-09-20T06:29:38.474Z,88.91
2016-09-20T06:30:39.148Z,89.01
2016-09-20T06:31:39.774Z,89.29
2016-09-20T06:32:40.424Z,89.39
2016-09-20T06:33:41.098Z,89.48
2016-09-20T06:34:41.771Z,89.58
2016-09-20T06:35:42.425Z,89.67
2016-09-20T06:36:43.065Z,89.48
2016-09-20T06:37:43.713Z,88.91
2016-09-20T06:38:44.359Z,89.1
2016-09-20T06:39:45.030Z,89.1
2016-09-20T06:40:45.703Z,89.15
2016-09-20T06:41:46.437Z,89.43
2016-09-20T06:42:47.111Z,88.86
2016-09-20T06:43:47.768Z,88.86
2016-09-20T06:44:48.454Z,88.76
2016-09-20T06:45:49.180Z,88.38
2016-09-20T06:46:49.838Z,88.57
2016-09-20T06:47:50.517Z,88.67
2016-09-20T06:48:51.240Z,88.67
2016-09-20T06:49:51.877Z,88.76
2016-09-20T06:50:52.549Z,89.05
2016-09-20T06:51:53.215Z,88.76
2016-09-20T06:52:53.839Z,88.95
2016-09-20T06:53:54.523Z,88.48
2016-09-20T06:54:55.168Z,88.48
2016-09-20T06:55:55.828Z,88.76
2016-09-20T06:56:56.481Z,88.95
2016-09-20T06:57:57.106Z,88.57
2016-09-20T06:58:57.766Z,89.01
2016-09-20T06:59:58.424Z,89.1
2016-09-20T07:00:59.076Z,89.67
2016-09-20T07:01:59.729Z,89.53
2016-09-20T07:04:01.104Z,89.48
2016-09-20T07:05:01.759Z,89.48
2016-09-20T07:06:02.406Z,89.2
2016-09-20T07:07:03.055Z,89.48
2016-09-20T07:08:03.722Z,89.24
2016-09-20T07:09:04.378Z,88.86
2016-09-20T07:10:05.029Z,89.43
2016-09-20T07:11:05.670Z,89.15
2016-09-20T07:12:06.335Z,88.76
2016-09-20T07:13:06.978Z,89.05
2016-09-20T07:14:07.656Z,88.76
2016-09-20T07:15:08.312Z,88.57
2016-09-20T07:16:08.970Z,88.09
2016-09-20T07:17:09.680Z,88.09
2016-09-20T07:18:10.328Z,88.09
2016-09-20T07:19:10.988Z,88
2016-09-20T07:20:11.623Z,87.71
2016-09-20T07:21:12.261Z,87.33
2016-09-20T07:22:12.906Z,87.62
2016-09-20T07:23:13.547Z,86.76
2016-09-20T07:24:14.194Z,87.43
2016-09-20T07:25:14.849Z,86.85
2016-09-20T07:26:15.507Z,87.14
2016-09-20T07:27:16.182Z,86.76
2016-09-20T07:28:16.863Z,86.94
2016-09-20T07:29:17.524Z,86.66
2016-09-20T07:30:18.188Z,85.8
2016-09-20T07:31:18.915Z,85.8
2016-09-20T07:32:19.578Z,86.08
2016-09-20T07:33:20.224Z,86.08
2016-09-20T07:34:20.884Z,86.08
2016-09-20T07:35:21.569Z,86.04
2016-09-20T07:36:22.223Z,86.22
2016-09-20T07:37:22.864Z,86.13
2016-09-20T07:38:23.517Z,85.75
2016-09-20T07:39:24.159Z,86.04
2016-09-20T07:40:24.812Z,85.65
2016-09-20T07:41:25.483Z,85.84
2016-09-20T07:42:26.145Z,85.94
2016-09-20T07:43:26.785Z,85.46
2016-09-20T07:44:27.451Z,85.61
2016-09-20T07:45:28.095Z,85.8
2016-09-20T07:46:28.760Z,86.04
2016-09-20T07:47:29.427Z,85.36
2016-09-20T07:48:30.085Z,85.55
2016-09-20T07:49:30.722Z,85.55
2016-09-20T07:50:31.384Z,84.98
2016-09-20T07:51:32.017Z,84.59
2016-09-20T07:52:32.652Z,84.98
2016-09-20T07:53:33.318Z,85.27
2016-09-20T07:54:33.989Z,84.98
2016-09-20T07:55:34.647Z,85.08
2016-09-20T07:56:35.335Z,84.88
2016-09-20T07:57:35.969Z,85.17
2016-09-20T07:58:36.610Z,84.31
2016-09-20T07:59:37.285Z,83.26
2016-09-20T08:00:37.951Z,83.16
2016-09-20T08:01:38.628Z,82.59
2016-09-20T08:02:39.291Z,82.49
2016-09-20T08:03:39.932Z,82.78
2016-09-20T08:04:40.592Z,82.59
2016-09-20T08:05:41.254Z,82.4
2016-09-20T08:06:41.897Z,82.11
2016-09-20T08:07:42.553Z,82.59
2016-09-20T08:08:43.195Z,81.67
2016-09-20T08:09:43.861Z,81.96
2016-09-20T08:10:44.529Z,81.57
2016-09-20T08:11:45.196Z,80.43
2016-09-20T08:12:45.874Z,80.33
2016-09-20T08:13:46.532Z,80.52
2016-09-20T08:14:47.175Z,80.43
2016-09-20T08:15:47.834Z,80.04
2016-09-20T08:16:48.487Z,79.37
2016-09-20T08:17:49.142Z,79.57
2016-09-20T08:18:49.796Z,80.14
2016-09-20T08:19:50.425Z,80.14
2016-09-20T08:20:51.089Z,79.47
2016-09-20T08:21:51.746Z,78.32
2016-09-20T08:22:52.405Z,78.99
2016-09-20T08:23:53.068Z,78.99
2016-09-20T08:24:53.773Z,79.18
2016-09-20T08:25:54.415Z,79.08
2016-09-20T08:26:55.072Z,78.99
2016-09-20T08:27:55.736Z,79.18
2016-09-20T08:28:56.374Z,78.42
2016-09-20T08:29:57.031Z,78.22
2016-09-20T08:30:57.693Z,78.13
2016-09-20T08:31:58.343Z,78.51
2016-09-20T08:32:59.004Z,78.32
2016-09-20T08:33:59.654Z,77.84
2016-09-20T08:35:00.303Z,77.94
2016-09-20T08:36:00.951Z,77.65
2016-09-20T08:37:01.598Z,77.94
2016-09-20T08:38:02.252Z,77.5
2016-09-20T08:39:02.887Z,77.21
2016-09-20T08:40:03.549Z,76.92
2016-09-20T08:41:04.198Z,77.02
2016-09-20T08:42:04.853Z,76.82
2016-09-20T08:43:05.527Z,75.87
2016-09-20T08:44:06.176Z,75.96
2016-09-20T08:45:06.821Z,76.15
2016-09-20T08:46:07.479Z,75.77
2016-09-20T08:47:08.135Z,75.2
2016-09-20T08:48:08.812Z,75.14
2016-09-20T08:49:09.468Z,75.33
2016-09-20T08:50:10.122Z,75.23
2016-09-20T08:51:10.806Z,75.04
2016-09-20T08:52:11.463Z,74.37
2016-09-20T08:53:12.127Z,74.47
2016-09-20T08:54:12.770Z,74.47
2016-09-20T08:55:13.422Z,73.99
2016-09-20T08:56:14.063Z,74.57
2016-09-20T08:57:14.751Z,74.18
2016-09-20T08:58:15.516Z,73.57
2016-09-20T08:59:16.185Z,73.95
2016-09-20T09:00:16.853Z,73.41
2016-09-20T09:01:17.505Z,73.51
2016-09-20T09:02:18.169Z,73.22
2016-09-20T09:03:18.831Z,72.94
2016-09-20T09:04:19.475Z,74.15
2016-09-20T09:05:20.126Z,73.9
2016-09-20T09:06:20.801Z,73.7
2016-09-20T09:07:21.436Z,73.61
2016-09-20T09:08:22.115Z,73.32
2016-09-20T09:09:22.765Z,72.84
2016-09-20T09:10:23.422Z,72.94
2016-09-20T09:11:24.071Z,73.22
2016-09-20T09:12:24.721Z,73.51
2016-09-20T09:13:25.364Z,73.51
2016-09-20T09:14:26.051Z,73.7
2016-09-20T09:15:26.702Z,73.41
2016-09-20T09:16:27.394Z,73.61
2016-09-20T09:17:28.047Z,73.51
2016-09-20T09:18:28.695Z,73.51
2016-09-20T09:19:29.350Z,73.22
2016-09-20T09:20:30.005Z,73.51
2016-09-20T09:21:30.665Z,73.7
2016-09-20T09:22:31.333Z,73.61
2016-09-20T09:23:31.984Z,73.93
2016-09-20T09:24:32.673Z,73.45
2016-09-20T09:25:34.249Z,72.78
2016-09-20T09:26:34.880Z,72.97
2016-09-20T09:27:36.387Z,72.68
2016-09-20T09:28:37.278Z,73.16
2016-09-20T09:29:37.953Z,73.55
2016-09-20T09:30:38.789Z,73.65
2016-09-20T09:31:39.548Z,73.93
2016-09-20T09:32:40.305Z,73.83
2016-09-20T09:33:40.965Z,73.83
2016-09-20T09:34:41.637Z,73.93
2016-09-20T09:35:42.316Z,73.83
2016-09-20T09:36:42.999Z,73.83
2016-09-20T09:37:43.649Z,73.45
2016-09-20T09:38:44.303Z,73.55
2016-09-20T09:39:44.963Z,73.45
2016-09-20T09:40:45.627Z,73.26
2016-09-20T09:41:46.276Z,73.16
2016-09-20T09:42:46.944Z,72.97
2016-09-20T09:43:47.583Z,72.11
2016-09-20T09:44:48.357Z,71.44
2016-09-20T09:45:49.003Z,71.72
2016-09-20T09:46:49.654Z,71.44
2016-09-20T09:47:50.334Z,71.44
2016-09-20T09:48:51.026Z,70.8
2016-09-20T09:49:51.662Z,70.32
2016-09-20T09:50:52.335Z,70.32
2016-09-20T09:51:52.959Z,69.93
2016-09-20T09:52:53.619Z,69.26
2016-09-20T09:53:54.294Z,69.74
2016-09-20T09:54:54.966Z,69.36
2016-09-20T09:55:55.639Z,68.79
2016-09-20T09:56:56.322Z,68.12
2016-09-20T09:57:56.991Z,68.3
2016-09-20T09:58:57.857Z,66.39
2016-09-20T09:59:58.554Z,65.43
2016-09-20T10:00:59.207Z,64.47
2016-09-20T10:01:59.873Z,64.56
2016-09-20T10:03:00.524Z,64.79
2016-09-20T10:04:01.221Z,60.92
2016-09-20T10:05:01.909Z,60.44
2016-09-20T10:06:02.523Z,61.3
2016-09-20T10:07:03.180Z,63.22
2016-09-20T10:08:03.831Z,63.12
2016-09-20T10:09:04.479Z,62.26
2016-09-20T10:10:05.194Z,60.15
2016-09-20T10:11:05.856Z,60.15
2016-09-20T10:12:06.505Z,61.3
2016-09-20T10:13:07.168Z,62.36
2016-09-20T10:14:07.839Z,62.36
2016-09-20T10:15:08.483Z,63.51
2016-09-20T10:16:09.130Z,63.7
2016-09-20T10:17:09.794Z,63.25
2016-09-20T10:18:10.455Z,62.77
2016-09-20T10:19:11.102Z,63.35
2016-09-20T10:20:11.750Z,62.58
2016-09-20T10:21:12.414Z,61.72
2016-09-20T10:22:13.066Z,62.29
2016-09-20T10:23:13.712Z,62.1
2016-09-20T10:24:14.355Z,61.52
2016-09-20T10:25:15.005Z,60.53
2016-09-20T10:26:15.656Z,59.77
2016-09-20T10:27:16.293Z,60.92
2016-09-20T10:28:16.944Z,60.05
2016-09-20T10:29:17.585Z,60.25
2016-09-20T10:30:18.232Z,58.04
2016-09-20T10:31:18.904Z,57.75
2016-09-20T10:32:19.544Z,58.62
2016-09-20T10:33:20.190Z,59.12
2016-09-20T10:34:20.897Z,59.03
2016-09-20T10:35:21.548Z,59.41
2016-09-20T10:36:22.196Z,58.23
2016-09-20T10:37:22.868Z,58.94
2016-09-20T10:38:23.549Z,59.48
2016-09-20T10:39:24.201Z,60.05
2016-09-20T10:40:24.863Z,60.75
2016-09-20T10:41:25.505Z,60.38
2016-09-20T10:42:26.160Z,60.72
2016-09-20T10:43:26.802Z,61.4
2016-09-20T10:44:27.565Z,61.69
2016-09-20T10:45:28.195Z,60.05
2016-09-20T10:46:28.886Z,60.15
2016-09-20T10:47:29.549Z,59.96
2016-09-20T10:48:30.219Z,59.96
2016-09-20T10:49:30.877Z,59.99
2016-09-20T10:50:31.605Z,60.15
2016-09-20T10:51:32.392Z,60.72
2016-09-20T10:52:33.048Z,61.21
2016-09-20T10:53:33.722Z,61.3
2016-09-20T10:54:34.424Z,61.88
2016-09-20T10:55:35.318Z,61.21
2016-09-20T10:56:36.041Z,61.3
2016-09-20T10:57:36.711Z,60.92
2016-09-20T10:58:37.371Z,59.67
2016-09-20T10:59:38.015Z,60.15
2016-09-20T11:00:38.675Z,61.69
2016-09-20T11:01:39.342Z,62.26
2016-09-20T11:02:39.999Z,62.36
2016-09-20T11:03:40.662Z,62.16
2016-09-20T11:04:41.318Z,62.74
2016-09-20T11:05:41.974Z,61.4
2016-09-20T11:06:42.621Z,61.11
2016-09-20T11:07:43.280Z,62.26
2016-09-20T11:08:43.940Z,62.45
2016-09-20T11:09:44.583Z,60.92
2016-09-20T11:10:45.264Z,59.48
2016-09-20T11:11:45.941Z,58.52
2016-09-20T11:12:46.616Z,58.71
2016-09-20T11:13:47.269Z,60.15
2016-09-20T11:14:47.944Z,61.4
2016-09-20T11:15:48.609Z,60.53
2016-09-20T11:16:49.252Z,60.63
2016-09-20T11:17:49.907Z,60.44
2016-09-20T11:18:50.567Z,60.15
2016-09-20T11:19:51.255Z,60.35
2016-09-20T11:20:51.884Z,59.09
2016-09-20T11:21:52.542Z,58.81
2016-09-20T11:22:53.200Z,57.92
2016-09-20T11:23:53.843Z,57.72
2016-09-20T11:24:54.501Z,58.01
2016-09-20T11:25:55.167Z,58.11
2016-09-20T11:26:55.857Z,56.96
2016-09-20T11:27:56.495Z,57.72
2016-09-20T11:28:57.169Z,57.53
2016-09-20T11:29:57.817Z,57.63
2016-09-20T11:30:58.483Z,57.82
2016-09-20T11:31:59.143Z,58.2
2016-09-20T11:32:59.788Z,58.3
2016-09-20T11:34:00.458Z,58.3
2016-09-20T11:35:01.106Z,59.55
2016-09-20T11:36:01.749Z,60.31
2016-09-20T11:37:02.428Z,60.41
2016-09-20T11:38:03.059Z,60.15
2016-09-20T11:39:03.716Z,60.6
2016-09-20T11:40:04.357Z,61.56
2016-09-20T11:41:05.049Z,61.75
2016-09-20T11:42:05.715Z,62.81
2016-09-20T11:43:06.379Z,62.52
2016-09-20T11:44:07.028Z,62.71
2016-09-20T11:45:07.692Z,63.48
2016-09-20T11:46:08.347Z,63.19
2016-09-20T11:47:08.988Z,63.29
2016-09-20T11:48:09.648Z,63.96
2016-09-20T11:49:10.294Z,63.96
2016-09-20T11:50:10.956Z,63.86
2016-09-20T11:51:11.615Z,63.57
2016-09-20T11:52:12.273Z,63.76
2016-09-20T11:53:12.923Z,63.29
2016-09-20T11:54:13.579Z,64.25
2016-09-20T11:55:14.245Z,63.76
2016-09-20T11:56:14.917Z,63.09
2016-09-20T11:57:15.561Z,63.67
2016-09-20T11:58:16.217Z,64.43
2016-09-20T11:59:16.892Z,63.96
2016-09-20T12:00:17.556Z,64.15
2016-09-20T12:01:18.191Z,64.34
2016-09-20T12:02:18.862Z,63.38
2016-09-20T12:03:19.540Z,63.57
2016-09-20T12:04:20.190Z,62.62
2016-09-20T12:05:20.842Z,62.23
2016-09-20T12:06:21.503Z,62.04
2016-09-20T12:07:22.155Z,62.42
2016-09-20T12:08:22.788Z,62.62
2016-09-20T12:09:23.432Z,62.62
2016-09-20T12:10:24.094Z,62.62
2016-09-20T12:11:24.739Z,62.71
2016-09-20T12:12:25.397Z,62.81
2016-09-20T12:13:26.070Z,62.42
2016-09-20T12:14:26.721Z,62.52
2016-09-20T12:15:27.367Z,63.48
2016-09-20T12:16:28.022Z,63.29
2016-09-20T12:17:28.661Z,63.86
2016-09-20T12:18:29.332Z,63.67
2016-09-20T12:19:30.010Z,63.67
2016-09-20T12:20:30.661Z,63.86
2016-09-20T12:21:31.352Z,63.19
2016-09-20T12:22:33.301Z,63.29
2016-09-20T12:23:33.965Z,63
2016-09-20T12:24:34.610Z,62.71
2016-09-20T12:25:35.273Z,62.84
2016-09-20T12:26:35.921Z,62.81
2016-09-20T12:27:36.572Z,62.45
2016-09-20T12:28:37.236Z,62.45
2016-09-20T12:29:37.913Z,62.26
2016-09-20T12:30:38.564Z,61.69
2016-09-20T12:31:39.220Z,61.78
2016-09-20T12:32:39.869Z,61.88
2016-09-20T12:33:40.531Z,62.07
2016-09-20T12:34:41.181Z,62.16
2016-09-20T12:35:41.830Z,62.26
2016-09-20T12:36:42.497Z,62.07
2016-09-20T12:37:43.154Z,61.4
2016-09-20T12:38:43.809Z,61.3
2016-09-20T12:39:44.472Z,59.48
2016-09-20T12:40:45.139Z,57.28
2016-09-20T12:41:45.798Z,56.31
2016-09-20T12:42:46.441Z,58.04
2016-09-20T12:43:47.081Z,58.62
2016-09-20T12:44:47.740Z,59.58
2016-09-20T12:45:48.393Z,59.38
2016-09-20T12:46:49.048Z,60.18
2016-09-20T12:47:49.690Z,60.47
2016-09-20T12:48:50.334Z,58.74
2016-09-20T12:49:51.010Z,59.03
2016-09-20T12:50:51.664Z,57.97
2016-09-20T12:51:52.331Z,58.45
2016-09-20T12:52:53.239Z,58.94
2016-09-20T12:53:54.083Z,58.26
2016-09-20T12:54:54.742Z,57.88
2016-09-20T12:55:55.388Z,58.26
2016-09-20T12:56:56.061Z,58.26
2016-09-20T12:57:56.734Z,58.33
2016-09-20T12:58:57.404Z,58.62
2016-09-20T12:59:58.075Z,57.88
2016-09-20T13:00:58.743Z,58.17
2016-09-20T13:01:59.435Z,58.17
2016-09-20T13:03:00.140Z,58.17
2016-09-20T13:04:00.777Z,58.45
2016-09-20T13:05:01.436Z,57.59